sensor_id;sensor_type;location;lat;lon;timestamp;P1;durP1;ratioP1;P2;durP2;ratioP2
23088;SDS011;11713;48.506;8.966;2023-06-22T00:00:50;8.77;;;7.82;;
23088;SDS011;11713;48.506;8.966;2023-06-22T00:03:20;8.38;;;6.80;;
23088;SDS011;11713;48.506;8.966;2023-06-22T00:05:47;8.93;;;7.88;;
23088;SDS011;11713;48.506;8.966;2023-06-22T00:08:16;8.73;;;7.80;;
23088;SDS011;11713;48.506;8.966;2023-06-22T00:10:43;11.07;;;8.38;;
23088;SDS011;11713;48.506;8.966;2023-06-22T00:13:10;9.02;;;7.00;;
23088;SDS011;11713;48.506;8.966;2023-06-22T00:15:38;9.05;;;8.00;;
23088;SDS011;11713;48.506;8.966;2023-06-22T00:18:06;9.50;;;7.60;;
23088;SDS011;11713;48.506;8.966;2023-06-22T00:20:32;8.20;;;7.30;;
23088;SDS011;11713;48.506;8.966;2023-06-22T00:23:02;12.23;;;7.82;;
23088;SDS011;11713;48.506;8.966;2023-06-22T00:25:33;8.63;;;7.07;;
23088;SDS011;11713;48.506;8.966;2023-06-22T00:28:08;12.65;;;7.80;;
23088;SDS011;11713;48.506;8.966;2023-06-22T00:30:34;8.23;;;7.00;;
23088;SDS011;11713;48.506;8.966;2023-06-22T00:33:00;8.38;;;7.45;;
23088;SDS011;11713;48.506;8.966;2023-06-22T00:35:26;11.60;;;7.88;;
23088;SDS011;11713;48.506;8.966;2023-06-22T00:37:56;10.02;;;7.30;;
23088;SDS011;11713;48.506;8.966;2023-06-22T00:40:30;9.55;;;7.75;;
23088;SDS011;11713;48.506;8.966;2023-06-22T00:42:57;10.23;;;7.45;;
23088;SDS011;11713;48.506;8.966;2023-06-22T00:45:24;8.32;;;6.80;;
23088;SDS011;11713;48.506;8.966;2023-06-22T00:47:51;8.23;;;7.35;;
23088;SDS011;11713;48.506;8.966;2023-06-22T00:50:21;9.60;;;7.53;;
23088;SDS011;11713;48.506;8.966;2023-06-22T00:52:48;10.77;;;7.95;;
23088;SDS011;11713;48.506;8.966;2023-06-22T00:55:17;8.32;;;7.45;;
23088;SDS011;11713;48.506;8.966;2023-06-22T00:57:47;8.75;;;7.38;;
23088;SDS011;11713;48.506;8.966;2023-06-22T01:00:14;9.10;;;7.47;;
23088;SDS011;11713;48.506;8.966;2023-06-22T01:02:43;9.40;;;8.07;;
23088;SDS011;11713;48.506;8.966;2023-06-22T01:05:15;8.07;;;7.28;;
23088;SDS011;11713;48.506;8.966;2023-06-22T01:07:45;9.88;;;7.65;;
23088;SDS011;11713;48.506;8.966;2023-06-22T01:10:25;10.45;;;7.32;;
23088;SDS011;11713;48.506;8.966;2023-06-22T01:13:00;12.50;;;8.02;;
23088;SDS011;11713;48.506;8.966;2023-06-22T01:18:17;8.50;;;7.60;;
23088;SDS011;11713;48.506;8.966;2023-06-22T01:20:43;8.85;;;7.78;;
23088;SDS011;11713;48.506;8.966;2023-06-22T01:26:36;8.48;;;7.22;;
23088;SDS011;11713;48.506;8.966;2023-06-22T01:29:07;10.70;;;8.60;;
23088;SDS011;11713;48.506;8.966;2023-06-22T01:31:37;9.52;;;8.40;;
23088;SDS011;11713;48.506;8.966;2023-06-22T01:34:05;12.35;;;9.05;;
23088;SDS011;11713;48.506;8.966;2023-06-22T01:36:34;9.95;;;8.95;;
23088;SDS011;11713;48.506;8.966;2023-06-22T01:39:02;9.43;;;8.23;;
23088;SDS011;11713;48.506;8.966;2023-06-22T01:41:29;11.32;;;8.40;;
23088;SDS011;11713;48.506;8.966;2023-06-22T01:44:00;10.20;;;9.20;;
23088;SDS011;11713;48.506;8.966;2023-06-22T01:46:28;11.52;;;8.55;;
23088;SDS011;11713;48.506;8.966;2023-06-22T01:48:54;8.95;;;7.88;;
23088;SDS011;11713;48.506;8.966;2023-06-22T01:51:21;9.60;;;7.63;;
23088;SDS011;11713;48.506;8.966;2023-06-22T01:53:47;9.40;;;8.18;;
23088;SDS011;11713;48.506;8.966;2023-06-22T01:56:14;9.35;;;7.90;;
23088;SDS011;11713;48.506;8.966;2023-06-22T01:58:47;10.57;;;8.50;;
23088;SDS011;11713;48.506;8.966;2023-06-22T02:01:35;11.82;;;8.55;;
23088;SDS011;11713;48.506;8.966;2023-06-22T02:04:17;11.73;;;8.40;;
23088;SDS011;11713;48.506;8.966;2023-06-22T02:06:46;11.32;;;8.18;;
23088;SDS011;11713;48.506;8.966;2023-06-22T02:09:17;13.20;;;9.45;;
23088;SDS011;11713;48.506;8.966;2023-06-22T02:11:44;11.75;;;8.70;;
23088;SDS011;11713;48.506;8.966;2023-06-22T02:14:13;10.48;;;8.40;;
23088;SDS011;11713;48.506;8.966;2023-06-22T02:16:40;12.48;;;8.00;;
23088;SDS011;11713;48.506;8.966;2023-06-22T02:19:07;9.38;;;8.48;;
23088;SDS011;11713;48.506;8.966;2023-06-22T02:21:33;10.38;;;8.18;;
23088;SDS011;11713;48.506;8.966;2023-06-22T02:23:59;10.75;;;8.93;;
23088;SDS011;11713;48.506;8.966;2023-06-22T02:26:28;11.63;;;8.98;;
23088;SDS011;11713;48.506;8.966;2023-06-22T02:28:55;9.98;;;8.50;;
23088;SDS011;11713;48.506;8.966;2023-06-22T02:31:23;9.25;;;8.15;;
23088;SDS011;11713;48.506;8.966;2023-06-22T02:33:58;9.50;;;8.15;;
23088;SDS011;11713;48.506;8.966;2023-06-22T02:36:25;9.68;;;8.60;;
23088;SDS011;11713;48.506;8.966;2023-06-22T02:38:52;9.88;;;8.65;;
23088;SDS011;11713;48.506;8.966;2023-06-22T02:41:19;11.82;;;8.40;;
23088;SDS011;11713;48.506;8.966;2023-06-22T02:43:47;9.25;;;8.23;;
23088;SDS011;11713;48.506;8.966;2023-06-22T02:46:14;12.63;;;9.32;;
23088;SDS011;11713;48.506;8.966;2023-06-22T02:48:41;9.15;;;8.07;;
23088;SDS011;11713;48.506;8.966;2023-06-22T02:51:07;11.65;;;8.05;;
23088;SDS011;11713;48.506;8.966;2023-06-22T02:53:36;9.38;;;8.48;;
23088;SDS011;11713;48.506;8.966;2023-06-22T02:56:02;14.07;;;8.75;;
23088;SDS011;11713;48.506;8.966;2023-06-22T02:58:33;11.15;;;8.73;;
23088;SDS011;11713;48.506;8.966;2023-06-22T03:01:07;12.93;;;8.10;;
23088;SDS011;11713;48.506;8.966;2023-06-22T03:03:35;13.93;;;9.38;;
23088;SDS011;11713;48.506;8.966;2023-06-22T03:06:02;9.20;;;8.20;;
23088;SDS011;11713;48.506;8.966;2023-06-22T03:08:28;12.90;;;8.55;;
23088;SDS011;11713;48.506;8.966;2023-06-22T03:10:55;9.38;;;8.43;;
23088;SDS011;11713;48.506;8.966;2023-06-22T03:13:21;9.60;;;8.02;;
23088;SDS011;11713;48.506;8.966;2023-06-22T03:15:48;9.80;;;8.48;;
23088;SDS011;11713;48.506;8.966;2023-06-22T03:18:13;9.68;;;8.10;;
23088;SDS011;11713;48.506;8.966;2023-06-22T03:20:40;11.80;;;8.77;;
23088;SDS011;11713;48.506;8.966;2023-06-22T03:23:08;12.18;;;8.40;;
23088;SDS011;11713;48.506;8.966;2023-06-22T03:25:34;13.77;;;8.30;;
23088;SDS011;11713;48.506;8.966;2023-06-22T03:28:01;9.60;;;8.60;;
23088;SDS011;11713;48.506;8.966;2023-06-22T03:30:27;12.05;;;8.18;;
23088;SDS011;11713;48.506;8.966;2023-06-22T03:32:52;10.57;;;7.80;;
23088;SDS011;11713;48.506;8.966;2023-06-22T03:35:19;11.48;;;8.65;;
23088;SDS011;11713;48.506;8.966;2023-06-22T03:37:45;11.80;;;8.25;;
23088;SDS011;11713;48.506;8.966;2023-06-22T03:40:11;13.20;;;8.65;;
23088;SDS011;11713;48.506;8.966;2023-06-22T03:42:38;9.40;;;8.27;;
23088;SDS011;11713;48.506;8.966;2023-06-22T03:45:04;12.65;;;9.18;;
23088;SDS011;11713;48.506;8.966;2023-06-22T03:47:31;13.00;;;9.10;;
23088;SDS011;11713;48.506;8.966;2023-06-22T03:49:58;13.05;;;9.23;;
23088;SDS011;11713;48.506;8.966;2023-06-22T03:52:24;11.43;;;9.25;;
23088;SDS011;11713;48.506;8.966;2023-06-22T03:54:50;13.98;;;9.20;;
23088;SDS011;11713;48.506;8.966;2023-06-22T03:57:16;12.15;;;9.02;;
23088;SDS011;11713;48.506;8.966;2023-06-22T03:59:42;12.40;;;9.50;;
23088;SDS011;11713;48.506;8.966;2023-06-22T04:02:08;11.52;;;9.07;;
23088;SDS011;11713;48.506;8.966;2023-06-22T04:04:34;12.98;;;8.70;;
23088;SDS011;11713;48.506;8.966;2023-06-22T04:07:00;11.80;;;9.00;;
23088;SDS011;11713;48.506;8.966;2023-06-22T04:09:26;13.13;;;8.85;;
23088;SDS011;11713;48.506;8.966;2023-06-22T04:11:52;10.55;;;8.93;;
23088;SDS011;11713;48.506;8.966;2023-06-22T04:14:18;12.77;;;9.10;;
23088;SDS011;11713;48.506;8.966;2023-06-22T04:16:46;10.73;;;8.40;;
23088;SDS011;11713;48.506;8.966;2023-06-22T04:19:14;11.65;;;9.57;;
23088;SDS011;11713;48.506;8.966;2023-06-22T04:21:43;12.15;;;9.00;;
23088;SDS011;11713;48.506;8.966;2023-06-22T04:24:10;12.73;;;8.02;;
23088;SDS011;11713;48.506;8.966;2023-06-22T04:26:36;9.30;;;8.40;;
23088;SDS011;11713;48.506;8.966;2023-06-22T04:29:07;14.25;;;9.45;;
23088;SDS011;11713;48.506;8.966;2023-06-22T04:31:34;14.18;;;9.70;;
23088;SDS011;11713;48.506;8.966;2023-06-22T04:34:03;10.68;;;9.38;;
23088;SDS011;11713;48.506;8.966;2023-06-22T04:36:39;11.30;;;9.07;;
23088;SDS011;11713;48.506;8.966;2023-06-22T04:39:07;13.25;;;10.07;;
23088;SDS011;11713;48.506;8.966;2023-06-22T04:41:38;12.32;;;9.38;;
23088;SDS011;11713;48.506;8.966;2023-06-22T04:44:11;11.80;;;10.23;;
23088;SDS011;11713;48.506;8.966;2023-06-22T04:46:38;15.48;;;9.38;;
23088;SDS011;11713;48.506;8.966;2023-06-22T04:49:07;11.68;;;9.63;;
23088;SDS011;11713;48.506;8.966;2023-06-22T04:51:41;9.88;;;8.80;;
23088;SDS011;11713;48.506;8.966;2023-06-22T04:54:08;13.45;;;10.25;;
23088;SDS011;11713;48.506;8.966;2023-06-22T04:56:34;10.40;;;9.32;;
23088;SDS011;11713;48.506;8.966;2023-06-22T04:59:01;11.27;;;9.77;;
23088;SDS011;11713;48.506;8.966;2023-06-22T05:01:28;11.50;;;10.02;;
23088;SDS011;11713;48.506;8.966;2023-06-22T05:03:56;13.52;;;10.10;;
23088;SDS011;11713;48.506;8.966;2023-06-22T05:06:27;11.02;;;9.60;;
23088;SDS011;11713;48.506;8.966;2023-06-22T05:08:54;11.48;;;10.27;;
23088;SDS011;11713;48.506;8.966;2023-06-22T05:11:25;13.52;;;10.60;;
23088;SDS011;11713;48.506;8.966;2023-06-22T05:13:54;18.83;;;10.70;;
23088;SDS011;11713;48.506;8.966;2023-06-22T05:16:22;11.48;;;9.93;;
23088;SDS011;11713;48.506;8.966;2023-06-22T05:18:54;10.57;;;9.48;;
23088;SDS011;11713;48.506;8.966;2023-06-22T05:21:24;13.02;;;10.20;;
23088;SDS011;11713;48.506;8.966;2023-06-22T05:23:51;12.93;;;10.15;;
23088;SDS011;11713;48.506;8.966;2023-06-22T05:26:18;11.57;;;9.73;;
23088;SDS011;11713;48.506;8.966;2023-06-22T05:28:45;12.13;;;10.43;;
23088;SDS011;11713;48.506;8.966;2023-06-22T05:31:15;13.23;;;9.77;;
23088;SDS011;11713;48.506;8.966;2023-06-22T05:33:42;12.75;;;9.82;;
23088;SDS011;11713;48.506;8.966;2023-06-22T05:36:08;12.65;;;9.82;;
23088;SDS011;11713;48.506;8.966;2023-06-22T05:38:35;11.05;;;9.75;;
23088;SDS011;11713;48.506;8.966;2023-06-22T05:41:02;10.82;;;9.65;;
23088;SDS011;11713;48.506;8.966;2023-06-22T05:43:28;13.38;;;9.35;;
23088;SDS011;11713;48.506;8.966;2023-06-22T05:45:54;13.00;;;9.57;;
23088;SDS011;11713;48.506;8.966;2023-06-22T05:48:20;14.30;;;10.07;;
23088;SDS011;11713;48.506;8.966;2023-06-22T05:50:46;11.13;;;9.13;;
23088;SDS011;11713;48.506;8.966;2023-06-22T05:53:13;13.32;;;9.75;;
23088;SDS011;11713;48.506;8.966;2023-06-22T05:55:39;14.30;;;9.10;;
23088;SDS011;11713;48.506;8.966;2023-06-22T05:58:06;12.43;;;9.68;;
23088;SDS011;11713;48.506;8.966;2023-06-22T06:00:32;13.48;;;10.07;;
23088;SDS011;11713;48.506;8.966;2023-06-22T06:02:59;12.45;;;9.60;;
23088;SDS011;11713;48.506;8.966;2023-06-22T06:05:32;15.63;;;11.02;;
23088;SDS011;11713;48.506;8.966;2023-06-22T06:08:00;12.13;;;10.25;;
23088;SDS011;11713;48.506;8.966;2023-06-22T06:10:35;12.15;;;10.13;;
23088;SDS011;11713;48.506;8.966;2023-06-22T06:13:01;11.98;;;9.70;;
23088;SDS011;11713;48.506;8.966;2023-06-22T06:15:29;11.75;;;9.88;;
23088;SDS011;11713;48.506;8.966;2023-06-22T06:17:56;12.43;;;10.10;;
23088;SDS011;11713;48.506;8.966;2023-06-22T06:20:23;12.45;;;9.98;;
23088;SDS011;11713;48.506;8.966;2023-06-22T06:22:50;11.73;;;9.40;;
23088;SDS011;11713;48.506;8.966;2023-06-22T06:25:16;14.75;;;10.48;;
23088;SDS011;11713;48.506;8.966;2023-06-22T06:27:43;11.50;;;10.25;;
23088;SDS011;11713;48.506;8.966;2023-06-22T06:30:11;12.95;;;9.18;;
23088;SDS011;11713;48.506;8.966;2023-06-22T06:32:38;12.65;;;8.48;;
23088;SDS011;11713;48.506;8.966;2023-06-22T06:35:08;14.32;;;9.63;;
23088;SDS011;11713;48.506;8.966;2023-06-22T06:37:35;13.07;;;9.35;;
23088;SDS011;11713;48.506;8.966;2023-06-22T06:40:06;9.75;;;8.43;;
23088;SDS011;11713;48.506;8.966;2023-06-22T06:42:53;9.60;;;8.60;;
23088;SDS011;11713;48.506;8.966;2023-06-22T06:45:21;11.00;;;7.72;;
23088;SDS011;11713;48.506;8.966;2023-06-22T06:47:48;11.48;;;8.07;;
23088;SDS011;11713;48.506;8.966;2023-06-22T06:50:15;10.30;;;7.90;;
23088;SDS011;11713;48.506;8.966;2023-06-22T06:52:42;9.60;;;6.95;;
23088;SDS011;11713;48.506;8.966;2023-06-22T06:55:08;9.20;;;6.90;;
23088;SDS011;11713;48.506;8.966;2023-06-22T06:57:38;8.93;;;6.10;;
23088;SDS011;11713;48.506;8.966;2023-06-22T07:00:08;10.18;;;6.32;;
23088;SDS011;11713;48.506;8.966;2023-06-22T07:02:37;7.35;;;6.45;;
23088;SDS011;11713;48.506;8.966;2023-06-22T07:05:05;7.28;;;6.50;;
23088;SDS011;11713;48.506;8.966;2023-06-22T07:07:31;8.38;;;6.03;;
23088;SDS011;11713;48.506;8.966;2023-06-22T07:09:57;11.00;;;5.90;;
23088;SDS011;11713;48.506;8.966;2023-06-22T07:12:23;7.95;;;5.60;;
23088;SDS011;11713;48.506;8.966;2023-06-22T07:14:49;8.70;;;5.68;;
23088;SDS011;11713;48.506;8.966;2023-06-22T07:17:16;7.10;;;6.35;;
23088;SDS011;11713;48.506;8.966;2023-06-22T07:19:41;8.98;;;5.68;;
23088;SDS011;11713;48.506;8.966;2023-06-22T07:22:07;9.15;;;5.68;;
23088;SDS011;11713;48.506;8.966;2023-06-22T07:24:33;9.52;;;5.88;;
23088;SDS011;11713;48.506;8.966;2023-06-22T07:26:59;8.27;;;5.82;;
23088;SDS011;11713;48.506;8.966;2023-06-22T07:29:25;9.05;;;6.03;;
23088;SDS011;11713;48.506;8.966;2023-06-22T07:31:52;9.73;;;5.82;;
23088;SDS011;11713;48.506;8.966;2023-06-22T07:34:18;7.80;;;5.95;;
23088;SDS011;11713;48.506;8.966;2023-06-22T07:36:44;9.35;;;5.25;;
23088;SDS011;11713;48.506;8.966;2023-06-22T07:39:11;11.40;;;5.72;;
23088;SDS011;11713;48.506;8.966;2023-06-22T07:41:38;8.95;;;5.65;;
23088;SDS011;11713;48.506;8.966;2023-06-22T07:44:06;10.10;;;5.82;;
23088;SDS011;11713;48.506;8.966;2023-06-22T07:46:32;9.40;;;5.93;;
23088;SDS011;11713;48.506;8.966;2023-06-22T07:48:58;11.52;;;6.40;;
23088;SDS011;11713;48.506;8.966;2023-06-22T07:51:25;9.02;;;6.40;;
23088;SDS011;11713;48.506;8.966;2023-06-22T07:53:51;12.20;;;6.78;;
23088;SDS011;11713;48.506;8.966;2023-06-22T07:56:17;10.40;;;6.15;;
23088;SDS011;11713;48.506;8.966;2023-06-22T07:58:46;9.93;;;6.05;;
23088;SDS011;11713;48.506;8.966;2023-06-22T08:01:13;10.30;;;6.28;;
23088;SDS011;11713;48.506;8.966;2023-06-22T08:03:40;11.60;;;6.20;;
23088;SDS011;11713;48.506;8.966;2023-06-22T08:06:06;10.98;;;6.45;;
23088;SDS011;11713;48.506;8.966;2023-06-22T08:08:34;9.55;;;6.03;;
23088;SDS011;11713;48.506;8.966;2023-06-22T08:11:01;8.43;;;5.68;;
23088;SDS011;11713;48.506;8.966;2023-06-22T08:13:27;14.70;;;5.95;;
23088;SDS011;11713;48.506;8.966;2023-06-22T08:15:52;10.00;;;6.25;;
23088;SDS011;11713;48.506;8.966;2023-06-22T08:18:18;8.68;;;6.30;;
23088;SDS011;11713;48.506;8.966;2023-06-22T08:20:44;8.20;;;6.57;;
23088;SDS011;11713;48.506;8.966;2023-06-22T08:23:10;9.98;;;6.35;;
23088;SDS011;11713;48.506;8.966;2023-06-22T08:25:36;8.98;;;6.20;;
23088;SDS011;11713;48.506;8.966;2023-06-22T08:28:03;10.60;;;6.57;;
23088;SDS011;11713;48.506;8.966;2023-06-22T08:30:30;9.43;;;6.20;;
23088;SDS011;11713;48.506;8.966;2023-06-22T08:32:56;10.77;;;6.75;;
23088;SDS011;11713;48.506;8.966;2023-06-22T08:35:22;11.75;;;6.72;;
23088;SDS011;11713;48.506;8.966;2023-06-22T08:37:48;9.65;;;6.28;;
23088;SDS011;11713;48.506;8.966;2023-06-22T08:40:19;10.93;;;5.95;;
23088;SDS011;11713;48.506;8.966;2023-06-22T08:42:46;11.23;;;6.40;;
23088;SDS011;11713;48.506;8.966;2023-06-22T08:45:12;9.18;;;5.95;;
23088;SDS011;11713;48.506;8.966;2023-06-22T08:47:39;9.23;;;6.43;;
23088;SDS011;11713;48.506;8.966;2023-06-22T08:50:06;10.13;;;5.50;;
23088;SDS011;11713;48.506;8.966;2023-06-22T08:52:36;12.23;;;6.70;;
23088;SDS011;11713;48.506;8.966;2023-06-22T08:55:03;12.05;;;6.78;;
23088;SDS011;11713;48.506;8.966;2023-06-22T08:57:30;7.55;;;5.75;;
23088;SDS011;11713;48.506;8.966;2023-06-22T08:59:57;7.95;;;5.75;;
23088;SDS011;11713;48.506;8.966;2023-06-22T09:02:24;12.32;;;6.35;;
23088;SDS011;11713;48.506;8.966;2023-06-22T09:04:51;10.25;;;6.07;;
23088;SDS011;11713;48.506;8.966;2023-06-22T09:07:21;9.77;;;6.82;;
23088;SDS011;11713;48.506;8.966;2023-06-22T09:09:48;10.27;;;6.05;;
23088;SDS011;11713;48.506;8.966;2023-06-22T09:12:14;11.70;;;6.00;;
23088;SDS011;11713;48.506;8.966;2023-06-22T09:14:40;10.70;;;5.88;;
23088;SDS011;11713;48.506;8.966;2023-06-22T09:17:06;9.75;;;6.25;;
23088;SDS011;11713;48.506;8.966;2023-06-22T09:19:32;12.25;;;6.30;;
23088;SDS011;11713;48.506;8.966;2023-06-22T09:21:58;11.80;;;6.93;;
23088;SDS011;11713;48.506;8.966;2023-06-22T09:24:25;9.82;;;6.68;;
23088;SDS011;11713;48.506;8.966;2023-06-22T09:26:50;10.40;;;6.40;;
23088;SDS011;11713;48.506;8.966;2023-06-22T09:29:16;11.50;;;6.05;;
23088;SDS011;11713;48.506;8.966;2023-06-22T09:31:42;11.93;;;6.32;;
23088;SDS011;11713;48.506;8.966;2023-06-22T09:34:09;9.68;;;6.35;;
23088;SDS011;11713;48.506;8.966;2023-06-22T09:36:35;9.65;;;6.20;;
23088;SDS011;11713;48.506;8.966;2023-06-22T09:39:01;12.82;;;6.25;;
23088;SDS011;11713;48.506;8.966;2023-06-22T09:41:31;7.57;;;5.97;;
23088;SDS011;11713;48.506;8.966;2023-06-22T09:43:57;9.88;;;6.80;;
23088;SDS011;11713;48.506;8.966;2023-06-22T09:46:23;10.20;;;6.13;;
23088;SDS011;11713;48.506;8.966;2023-06-22T09:48:50;11.52;;;6.75;;
23088;SDS011;11713;48.506;8.966;2023-06-22T09:51:16;12.82;;;6.07;;
23088;SDS011;11713;48.506;8.966;2023-06-22T09:53:44;15.07;;;6.10;;
23088;SDS011;11713;48.506;8.966;2023-06-22T09:56:10;10.13;;;6.75;;
23088;SDS011;11713;48.506;8.966;2023-06-22T09:58:40;13.00;;;6.20;;
23088;SDS011;11713;48.506;8.966;2023-06-22T10:01:10;12.98;;;6.07;;
23088;SDS011;11713;48.506;8.966;2023-06-22T10:03:36;9.93;;;6.18;;
23088;SDS011;11713;48.506;8.966;2023-06-22T10:06:03;10.00;;;6.15;;
23088;SDS011;11713;48.506;8.966;2023-06-22T10:08:30;11.95;;;6.25;;
23088;SDS011;11713;48.506;8.966;2023-06-22T10:10:56;9.98;;;6.40;;
23088;SDS011;11713;48.506;8.966;2023-06-22T10:13:22;8.35;;;6.22;;
23088;SDS011;11713;48.506;8.966;2023-06-22T10:15:49;8.55;;;6.07;;
23088;SDS011;11713;48.506;8.966;2023-06-22T10:18:17;9.77;;;5.75;;
23088;SDS011;11713;48.506;8.966;2023-06-22T10:20:46;12.20;;;6.50;;
23088;SDS011;11713;48.506;8.966;2023-06-22T10:23:15;8.65;;;5.93;;
23088;SDS011;11713;48.506;8.966;2023-06-22T10:25:41;8.45;;;6.20;;
23088;SDS011;11713;48.506;8.966;2023-06-22T10:28:07;11.27;;;5.65;;
23088;SDS011;11713;48.506;8.966;2023-06-22T10:30:33;9.50;;;5.70;;
23088;SDS011;11713;48.506;8.966;2023-06-22T10:32:59;12.13;;;6.07;;
23088;SDS011;11713;48.506;8.966;2023-06-22T10:35:26;11.48;;;6.28;;
23088;SDS011;11713;48.506;8.966;2023-06-22T10:37:52;10.75;;;6.53;;
23088;SDS011;11713;48.506;8.966;2023-06-22T10:40:21;9.48;;;6.05;;
23088;SDS011;11713;48.506;8.966;2023-06-22T10:42:47;8.50;;;6.18;;
23088;SDS011;11713;48.506;8.966;2023-06-22T10:45:13;14.77;;;6.43;;
23088;SDS011;11713;48.506;8.966;2023-06-22T10:47:39;11.43;;;6.07;;
23088;SDS011;11713;48.506;8.966;2023-06-22T10:50:07;12.63;;;6.38;;
23088;SDS011;11713;48.506;8.966;2023-06-22T10:52:34;12.05;;;6.30;;
23088;SDS011;11713;48.506;8.966;2023-06-22T10:55:00;9.82;;;6.07;;
23088;SDS011;11713;48.506;8.966;2023-06-22T10:57:26;11.85;;;6.53;;
23088;SDS011;11713;48.506;8.966;2023-06-22T10:59:52;11.32;;;6.75;;
23088;SDS011;11713;48.506;8.966;2023-06-22T11:02:20;10.27;;;6.18;;
23088;SDS011;11713;48.506;8.966;2023-06-22T11:04:45;11.93;;;6.00;;
23088;SDS011;11713;48.506;8.966;2023-06-22T11:07:12;7.35;;;5.72;;
23088;SDS011;11713;48.506;8.966;2023-06-22T11:09:38;8.38;;;6.00;;
23088;SDS011;11713;48.506;8.966;2023-06-22T11:12:04;12.93;;;6.28;;
23088;SDS011;11713;48.506;8.966;2023-06-22T11:14:31;11.15;;;5.53;;
23088;SDS011;11713;48.506;8.966;2023-06-22T11:16:58;10.45;;;6.05;;
23088;SDS011;11713;48.506;8.966;2023-06-22T11:19:25;10.90;;;6.85;;
23088;SDS011;11713;48.506;8.966;2023-06-22T11:21:52;9.07;;;5.63;;
23088;SDS011;11713;48.506;8.966;2023-06-22T11:24:18;10.88;;;6.35;;
23088;SDS011;11713;48.506;8.966;2023-06-22T11:26:43;8.38;;;5.93;;
23088;SDS011;11713;48.506;8.966;2023-06-22T11:29:09;10.38;;;6.25;;
23088;SDS011;11713;48.506;8.966;2023-06-22T11:31:35;9.70;;;6.45;;
23088;SDS011;11713;48.506;8.966;2023-06-22T11:34:01;12.77;;;6.53;;
23088;SDS011;11713;48.506;8.966;2023-06-22T11:36:29;12.50;;;6.60;;
23088;SDS011;11713;48.506;8.966;2023-06-22T11:38:58;10.32;;;6.60;;
23088;SDS011;11713;48.506;8.966;2023-06-22T11:41:24;9.32;;;6.55;;
23088;SDS011;11713;48.506;8.966;2023-06-22T11:43:50;10.35;;;6.40;;
23088;SDS011;11713;48.506;8.966;2023-06-22T11:46:16;10.88;;;6.43;;
23088;SDS011;11713;48.506;8.966;2023-06-22T11:48:43;12.68;;;6.35;;
23088;SDS011;11713;48.506;8.966;2023-06-22T11:51:08;12.57;;;6.38;;
23088;SDS011;11713;48.506;8.966;2023-06-22T11:53:34;10.18;;;6.60;;
23088;SDS011;11713;48.506;8.966;2023-06-22T11:56:00;12.80;;;6.45;;
23088;SDS011;11713;48.506;8.966;2023-06-22T11:58:27;9.60;;;6.57;;
23088;SDS011;11713;48.506;8.966;2023-06-22T12:00:55;10.57;;;5.97;;
23088;SDS011;11713;48.506;8.966;2023-06-22T12:03:22;10.25;;;6.63;;
23088;SDS011;11713;48.506;8.966;2023-06-22T12:05:49;11.57;;;6.43;;
23088;SDS011;11713;48.506;8.966;2023-06-22T12:08:19;10.43;;;6.70;;
23088;SDS011;11713;48.506;8.966;2023-06-22T12:10:49;11.25;;;6.88;;
23088;SDS011;11713;48.506;8.966;2023-06-22T12:13:15;9.57;;;6.10;;
23088;SDS011;11713;48.506;8.966;2023-06-22T12:15:41;10.13;;;6.63;;
23088;SDS011;11713;48.506;8.966;2023-06-22T12:18:08;9.35;;;6.30;;
23088;SDS011;11713;48.506;8.966;2023-06-22T12:20:34;7.90;;;5.78;;
23088;SDS011;11713;48.506;8.966;2023-06-22T12:23:01;10.07;;;6.43;;
23088;SDS011;11713;48.506;8.966;2023-06-22T12:25:28;11.65;;;6.40;;
23088;SDS011;11713;48.506;8.966;2023-06-22T12:27:54;10.15;;;6.82;;
23088;SDS011;11713;48.506;8.966;2023-06-22T12:30:21;10.52;;;6.82;;
23088;SDS011;11713;48.506;8.966;2023-06-22T12:32:48;11.07;;;6.70;;
23088;SDS011;11713;48.506;8.966;2023-06-22T12:35:14;10.95;;;6.65;;
23088;SDS011;11713;48.506;8.966;2023-06-22T12:37:41;10.52;;;6.15;;
23088;SDS011;11713;48.506;8.966;2023-06-22T12:40:10;10.98;;;6.50;;
23088;SDS011;11713;48.506;8.966;2023-06-22T12:42:36;10.98;;;6.65;;
23088;SDS011;11713;48.506;8.966;2023-06-22T12:45:02;11.73;;;6.53;;
23088;SDS011;11713;48.506;8.966;2023-06-22T12:47:28;10.55;;;6.68;;
23088;SDS011;11713;48.506;8.966;2023-06-22T12:49:54;10.25;;;6.78;;
23088;SDS011;11713;48.506;8.966;2023-06-22T12:52:19;12.48;;;6.72;;
23088;SDS011;11713;48.506;8.966;2023-06-22T12:54:45;8.48;;;5.97;;
23088;SDS011;11713;48.506;8.966;2023-06-22T12:57:11;8.27;;;6.35;;
23088;SDS011;11713;48.506;8.966;2023-06-22T12:59:37;9.68;;;6.25;;
23088;SDS011;11713;48.506;8.966;2023-06-22T13:02:03;7.35;;;6.03;;
23088;SDS011;11713;48.506;8.966;2023-06-22T13:04:29;8.40;;;5.75;;
23088;SDS011;11713;48.506;8.966;2023-06-22T13:06:55;11.50;;;7.03;;
23088;SDS011;11713;48.506;8.966;2023-06-22T13:09:20;10.48;;;5.97;;
23088;SDS011;11713;48.506;8.966;2023-06-22T13:11:46;9.18;;;6.05;;
23088;SDS011;11713;48.506;8.966;2023-06-22T13:14:12;13.32;;;6.53;;
23088;SDS011;11713;48.506;8.966;2023-06-22T13:16:38;11.80;;;6.60;;
23088;SDS011;11713;48.506;8.966;2023-06-22T13:19:04;11.50;;;6.45;;
23088;SDS011;11713;48.506;8.966;2023-06-22T13:21:30;10.27;;;5.88;;
23088;SDS011;11713;48.506;8.966;2023-06-22T13:23:56;14.38;;;6.90;;
23088;SDS011;11713;48.506;8.966;2023-06-22T13:26:22;11.02;;;6.47;;
23088;SDS011;11713;48.506;8.966;2023-06-22T13:28:48;12.13;;;6.93;;
23088;SDS011;11713;48.506;8.966;2023-06-22T13:31:15;10.50;;;6.75;;
23088;SDS011;11713;48.506;8.966;2023-06-22T13:33:40;10.27;;;6.70;;
23088;SDS011;11713;48.506;8.966;2023-06-22T13:36:07;10.38;;;6.47;;
23088;SDS011;11713;48.506;8.966;2023-06-22T13:38:35;14.05;;;6.70;;
23088;SDS011;11713;48.506;8.966;2023-06-22T13:41:04;10.77;;;6.40;;
23088;SDS011;11713;48.506;8.966;2023-06-22T13:43:32;10.85;;;6.15;;
23088;SDS011;11713;48.506;8.966;2023-06-22T13:45:58;9.85;;;5.93;;
23088;SDS011;11713;48.506;8.966;2023-06-22T13:48:24;13.05;;;6.70;;
23088;SDS011;11713;48.506;8.966;2023-06-22T13:50:51;7.82;;;6.65;;
23088;SDS011;11713;48.506;8.966;2023-06-22T13:53:18;13.35;;;6.90;;
23088;SDS011;11713;48.506;8.966;2023-06-22T13:55:44;9.52;;;6.78;;
23088;SDS011;11713;48.506;8.966;2023-06-22T13:58:11;8.93;;;6.55;;
23088;SDS011;11713;48.506;8.966;2023-06-22T14:00:38;9.02;;;6.75;;
23088;SDS011;11713;48.506;8.966;2023-06-22T14:03:04;9.40;;;6.50;;
23088;SDS011;11713;48.506;8.966;2023-06-22T14:05:30;12.80;;;7.10;;
23088;SDS011;11713;48.506;8.966;2023-06-22T14:07:57;9.73;;;6.72;;
23088;SDS011;11713;48.506;8.966;2023-06-22T14:10:26;10.75;;;6.65;;
23088;SDS011;11713;48.506;8.966;2023-06-22T14:12:57;12.40;;;6.95;;
23088;SDS011;11713;48.506;8.966;2023-06-22T14:15:25;10.82;;;7.00;;
23088;SDS011;11713;48.506;8.966;2023-06-22T14:17:55;8.70;;;6.57;;
23088;SDS011;11713;48.506;8.966;2023-06-22T14:20:22;13.65;;;7.10;;
23088;SDS011;11713;48.506;8.966;2023-06-22T14:22:48;13.43;;;7.32;;
23088;SDS011;11713;48.506;8.966;2023-06-22T14:25:14;15.88;;;7.82;;
23088;SDS011;11713;48.506;8.966;2023-06-22T14:27:40;15.90;;;7.00;;
23088;SDS011;11713;48.506;8.966;2023-06-22T14:30:06;13.48;;;6.38;;
23088;SDS011;11713;48.506;8.966;2023-06-22T14:32:33;12.52;;;5.65;;
23088;SDS011;11713;48.506;8.966;2023-06-22T14:35:00;14.95;;;5.38;;
23088;SDS011;11713;48.506;8.966;2023-06-22T14:37:26;10.45;;;4.57;;
23088;SDS011;11713;48.506;8.966;2023-06-22T14:39:51;11.75;;;5.00;;
23088;SDS011;11713;48.506;8.966;2023-06-22T14:42:17;11.43;;;4.43;;
23088;SDS011;11713;48.506;8.966;2023-06-22T14:44:43;13.50;;;4.57;;